< < Back
Terminal Aerodrome Forecast


Current Version              Previous Versions:   1  2  3  4  5  6  7  8  9  

Terminal Aerodrome Forecast

145
FTUS44 KMOB 251747
TAFMOB
TAF
KMOB 251747Z 2518/2618 03009KT P6SM VCTS FEW025CB BKN080 BKN250
     FM260300 06003KT P6SM FEW250
     FM261400 07008KT P6SM SKC=



Latest METAR

052
SAUS80 KWBC 252100 CCA
MTRMOB
METAR KMOB 252056Z 08010KT 10SM SCT040 SCT060 33/22 A3003 RMK AO2 SLP167
T03280217 56022


USA.gov is the U.S. government's official web portal to all federal, state and local government web resources and services.